Friday, May 25, 2018, 9:00 AM EDT
Back to Local

KTEB, Teterboro Airport

Location: South Hackensack, NJ, United States Lat: 40.867
Local Time: 9:00 AM EDT (13:00 GMT) Lon: -74.05
Time Zone: US/Eastern Elev: 9 ft

Show me the last for .
Show Decoded

2018-05-25 07:51 METAR KTEB 251151Z 21006KT 10SM CLR 21/12 A3003 RMK AO2 SLP169 T02060122 10206
                 20156 58001 =
2018-05-25 06:51 METAR KTEB 251051Z 00000KT 10SM CLR 18/13 A3004 RMK AO2 SLP172 T01780128 =
2018-05-25 05:51 METAR KTEB 250951Z 21003KT 10SM CLR 16/11 A3004 RMK AO2 SLP174 T01610111 =
2018-05-25 04:51 METAR KTEB 250851Z 00000KT 10SM CLR 17/11 A3003 RMK AO2 SLP170 T01720106 56009 =
2018-05-25 03:51 METAR KTEB 250751Z 00000KT 10SM CLR 17/11 A3004 RMK AO2 SLP173 T01670106 =
2018-05-25 02:51 METAR KTEB 250651Z 22003KT 10SM CLR 18/10 A3005 RMK AO2 SLP175 T01780100 =
2018-05-25 01:51 METAR KTEB 250551Z 19004KT 10SM CLR 19/09 A3006 RMK AO2 SLP180 T01890094 10250
                 20189 58002 =
2018-05-25 00:51 METAR KTEB 250451Z 19004KT 10SM CLR 19/09 A3007 RMK AO2 SLP183 T01940094
                 403000167 =
2018-05-24 23:51 METAR KTEB 250351Z 18005KT 10SM CLR 21/08 A3007 RMK AO2 SLP183 T02060083 =
2018-05-24 22:51 METAR KTEB 250251Z 20008KT 10SM CLR 22/08 A3007 RMK AO2 SLP182 T02170078 51009 =
2018-05-24 21:51 METAR KTEB 250151Z 19007KT 10SM CLR 22/07 A3007 RMK AO2 SLP182 T02220072 =
2018-05-24 20:51 METAR KTEB 250051Z 19007KT 10SM CLR 23/09 A3005 RMK AO2 SLP176 T02330089 =
2018-05-24 19:51 METAR KTEB 242351Z 18005KT 10SM CLR 26/08 A3004 RMK AO2 SLP173 T02560078 10300
                 20256 55002 =
2018-05-24 18:51 METAR KTEB 242251Z 18009KT 10SM CLR 27/07 A3004 RMK AO2 SLP171 T02670067 =
2018-05-24 17:51 METAR KTEB 242151Z 15009G19KT 10SM CLR 29/06 A3004 RMK AO2 SLP170 T02940056 =
2018-05-24 16:51 METAR KTEB 242051Z 17006KT 10SM CLR 29/07 A3005 RMK AO2 SLP175 T02890067 58014 =
2018-05-24 15:51 METAR KTEB 241951Z 19004KT 10SM CLR 28/06 A3006 RMK AO2 SLP179 T02830056 =
2018-05-24 14:51 METAR KTEB 241851Z VRB04KT 10SM CLR 28/05 A3008 RMK AO2 SLP185 T02780050 =
2018-05-24 13:51 METAR KTEB 241751Z 21005KT 10SM CLR 27/06 A3009 RMK AO2 SLP189 T02670056 10272
                 20206 58011 =
2018-05-24 12:51 METAR KTEB 241651Z VRB05KT 10SM CLR 27/06 A3011 RMK AO2 SLP195 T02670061 =
2018-05-24 11:51 METAR KTEB 241551Z VRB03KT 10SM CLR 25/05 A3012 RMK AO2 SLP200 T02500050 =
2018-05-24 10:51 METAR KTEB 241451Z 34006KT 10SM CLR 24/04 A3012 RMK AO2 SLP200 T02440044 51003 =
2018-05-24 09:51 METAR KTEB 241351Z 32009KT 10SM CLR 24/07 A3012 RMK AO2 SLP199 T02390067 =

Support USWX by starting your Amazon purchase here.